sensor_id;sensor_type;location;lat;lon;timestamp;temperature;humidity
10986;DHT22;5546;48.714;8.738;2024-03-07T00:01:17;10.30;99.90
10986;DHT22;5546;48.714;8.738;2024-03-07T00:03:42;10.40;99.90
10986;DHT22;5546;48.714;8.738;2024-03-07T00:06:10;10.50;99.90
10986;DHT22;5546;48.714;8.738;2024-03-07T00:08:35;10.60;99.90
10986;DHT22;5546;48.714;8.738;2024-03-07T00:11:01;10.70;99.90
10986;DHT22;5546;48.714;8.738;2024-03-07T00:13:27;10.70;99.90
10986;DHT22;5546;48.714;8.738;2024-03-07T00:15:53;10.70;99.90
10986;DHT22;5546;48.714;8.738;2024-03-07T00:18:19;10.60;99.90
10986;DHT22;5546;48.714;8.738;2024-03-07T00:20:44;10.90;99.90
10986;DHT22;5546;48.714;8.738;2024-03-07T00:23:10;10.60;99.90
10986;DHT22;5546;48.714;8.738;2024-03-07T00:25:35;10.70;99.90
10986;DHT22;5546;48.714;8.738;2024-03-07T00:28:01;10.60;99.90
10986;DHT22;5546;48.714;8.738;2024-03-07T00:30:29;10.70;99.90
10986;DHT22;5546;48.714;8.738;2024-03-07T00:32:56;10.70;99.90
10986;DHT22;5546;48.714;8.738;2024-03-07T00:35:22;10.70;99.90
10986;DHT22;5546;48.714;8.738;2024-03-07T00:37:47;10.70;99.90
10986;DHT22;5546;48.714;8.738;2024-03-07T00:40:13;10.40;99.90
10986;DHT22;5546;48.714;8.738;2024-03-07T00:42:38;10.60;99.90
10986;DHT22;5546;48.714;8.738;2024-03-07T00:45:04;10.60;99.90
10986;DHT22;5546;48.714;8.738;2024-03-07T00:47:31;10.50;99.90
10986;DHT22;5546;48.714;8.738;2024-03-07T00:50:00;10.20;99.90
10986;DHT22;5546;48.714;8.738;2024-03-07T00:57:17;10.40;99.90
10986;DHT22;5546;48.714;8.738;2024-03-07T00:59:43;10.60;99.90
10986;DHT22;5546;48.714;8.738;2024-03-07T01:02:08;10.70;99.90
10986;DHT22;5546;48.714;8.738;2024-03-07T01:04:34;10.70;99.90
10986;DHT22;5546;48.714;8.738;2024-03-07T01:07:00;10.40;99.90
10986;DHT22;5546;48.714;8.738;2024-03-07T01:09:26;10.50;99.90
10986;DHT22;5546;48.714;8.738;2024-03-07T01:11:54;10.50;99.90
10986;DHT22;5546;48.714;8.738;2024-03-07T01:14:20;10.20;99.90
10986;DHT22;5546;48.714;8.738;2024-03-07T01:16:46;10.10;99.90
10986;DHT22;5546;48.714;8.738;2024-03-07T01:19:12;10.00;99.90
10986;DHT22;5546;48.714;8.738;2024-03-07T01:21:38;10.20;99.90
10986;DHT22;5546;48.714;8.738;2024-03-07T01:24:04;10.30;99.90
10986;DHT22;5546;48.714;8.738;2024-03-07T01:26:30;10.40;99.90
10986;DHT22;5546;48.714;8.738;2024-03-07T01:28:59;10.10;99.90
10986;DHT22;5546;48.714;8.738;2024-03-07T01:31:25;10.30;99.90
10986;DHT22;5546;48.714;8.738;2024-03-07T01:33:51;10.30;99.90
10986;DHT22;5546;48.714;8.738;2024-03-07T01:38:42;10.40;99.90
10986;DHT22;5546;48.714;8.738;2024-03-07T01:41:08;10.10;99.90
10986;DHT22;5546;48.714;8.738;2024-03-07T01:43:34;10.10;99.90
10986;DHT22;5546;48.714;8.738;2024-03-07T01:46:00;10.10;99.90
10986;DHT22;5546;48.714;8.738;2024-03-07T01:48:27;9.80;99.90
10986;DHT22;5546;48.714;8.738;2024-03-07T01:50:57;9.40;99.90
10986;DHT22;5546;48.714;8.738;2024-03-07T01:53:24;9.50;99.90
10986;DHT22;5546;48.714;8.738;2024-03-07T01:55:51;9.50;99.90
10986;DHT22;5546;48.714;8.738;2024-03-07T01:58:18;9.50;99.90
10986;DHT22;5546;48.714;8.738;2024-03-07T02:00:45;9.60;99.90
10986;DHT22;5546;48.714;8.738;2024-03-07T02:03:10;9.50;99.90
10986;DHT22;5546;48.714;8.738;2024-03-07T02:05:36;9.40;99.90
10986;DHT22;5546;48.714;8.738;2024-03-07T02:08:02;9.50;99.90
10986;DHT22;5546;48.714;8.738;2024-03-07T02:10:27;9.80;99.90
10986;DHT22;5546;48.714;8.738;2024-03-07T02:12:53;9.90;99.90
10986;DHT22;5546;48.714;8.738;2024-03-07T02:15:19;9.60;99.90
10986;DHT22;5546;48.714;8.738;2024-03-07T02:17:45;9.60;99.90
10986;DHT22;5546;48.714;8.738;2024-03-07T02:20:11;9.20;99.90
10986;DHT22;5546;48.714;8.738;2024-03-07T02:22:39;8.80;99.90
10986;DHT22;5546;48.714;8.738;2024-03-07T02:25:07;8.60;99.90
10986;DHT22;5546;48.714;8.738;2024-03-07T02:27:35;8.80;99.90
10986;DHT22;5546;48.714;8.738;2024-03-07T02:30:01;9.00;99.90
10986;DHT22;5546;48.714;8.738;2024-03-07T02:32:29;8.70;99.90
10986;DHT22;5546;48.714;8.738;2024-03-07T02:34:54;8.40;99.90
10986;DHT22;5546;48.714;8.738;2024-03-07T02:37:20;8.60;99.90
10986;DHT22;5546;48.714;8.738;2024-03-07T02:39:46;8.80;99.90
10986;DHT22;5546;48.714;8.738;2024-03-07T02:42:11;8.90;99.90
10986;DHT22;5546;48.714;8.738;2024-03-07T02:44:37;8.90;99.90
10986;DHT22;5546;48.714;8.738;2024-03-07T02:47:04;9.00;99.90
10986;DHT22;5546;48.714;8.738;2024-03-07T02:49:30;8.90;99.90
10986;DHT22;5546;48.714;8.738;2024-03-07T02:51:55;8.40;99.90
10986;DHT22;5546;48.714;8.738;2024-03-07T02:54:21;8.40;99.90
10986;DHT22;5546;48.714;8.738;2024-03-07T02:56:46;7.90;99.90
10986;DHT22;5546;48.714;8.738;2024-03-07T02:59:12;8.00;99.90
10986;DHT22;5546;48.714;8.738;2024-03-07T03:01:38;8.20;99.90
10986;DHT22;5546;48.714;8.738;2024-03-07T03:04:04;8.20;99.90
10986;DHT22;5546;48.714;8.738;2024-03-07T03:06:29;8.20;99.90
10986;DHT22;5546;48.714;8.738;2024-03-07T03:08:55;8.00;99.90
10986;DHT22;5546;48.714;8.738;2024-03-07T03:11:21;8.00;99.90
10986;DHT22;5546;48.714;8.738;2024-03-07T03:13:46;8.00;99.90
10986;DHT22;5546;48.714;8.738;2024-03-07T03:16:13;8.20;99.90
10986;DHT22;5546;48.714;8.738;2024-03-07T03:18:39;8.40;99.90
10986;DHT22;5546;48.714;8.738;2024-03-07T03:21:05;8.40;99.90
10986;DHT22;5546;48.714;8.738;2024-03-07T03:23:30;8.30;99.90
10986;DHT22;5546;48.714;8.738;2024-03-07T03:25:56;8.40;99.90
10986;DHT22;5546;48.714;8.738;2024-03-07T03:28:22;8.30;99.90
10986;DHT22;5546;48.714;8.738;2024-03-07T03:30:49;8.40;99.90
10986;DHT22;5546;48.714;8.738;2024-03-07T03:33:15;8.30;99.90
10986;DHT22;5546;48.714;8.738;2024-03-07T03:35:41;8.60;99.90
10986;DHT22;5546;48.714;8.738;2024-03-07T03:38:07;8.60;99.90
10986;DHT22;5546;48.714;8.738;2024-03-07T03:40:33;8.70;99.90
10986;DHT22;5546;48.714;8.738;2024-03-07T03:42:59;8.70;99.90
10986;DHT22;5546;48.714;8.738;2024-03-07T03:45:26;8.60;99.90
10986;DHT22;5546;48.714;8.738;2024-03-07T03:50:18;8.40;99.90
10986;DHT22;5546;48.714;8.738;2024-03-07T03:52:44;8.30;99.90
10986;DHT22;5546;48.714;8.738;2024-03-07T03:55:10;8.30;99.90
10986;DHT22;5546;48.714;8.738;2024-03-07T03:57:38;8.20;99.90
10986;DHT22;5546;48.714;8.738;2024-03-07T04:00:05;8.40;99.90
10986;DHT22;5546;48.714;8.738;2024-03-07T04:02:46;8.40;99.90
10986;DHT22;5546;48.714;8.738;2024-03-07T04:05:17;8.30;99.90
10986;DHT22;5546;48.714;8.738;2024-03-07T04:07:43;8.20;99.90
10986;DHT22;5546;48.714;8.738;2024-03-07T04:10:09;8.40;99.90
10986;DHT22;5546;48.714;8.738;2024-03-07T04:12:37;8.20;99.90
10986;DHT22;5546;48.714;8.738;2024-03-07T04:15:05;8.30;99.90
10986;DHT22;5546;48.714;8.738;2024-03-07T04:17:33;8.30;99.90
10986;DHT22;5546;48.714;8.738;2024-03-07T04:20:00;7.90;99.90
10986;DHT22;5546;48.714;8.738;2024-03-07T04:22:25;7.80;99.90
10986;DHT22;5546;48.714;8.738;2024-03-07T04:24:51;7.70;99.90
10986;DHT22;5546;48.714;8.738;2024-03-07T04:27:19;7.60;99.90
10986;DHT22;5546;48.714;8.738;2024-03-07T04:29:45;7.70;99.90
10986;DHT22;5546;48.714;8.738;2024-03-07T04:32:13;7.40;99.90
10986;DHT22;5546;48.714;8.738;2024-03-07T04:34:39;7.20;99.90
10986;DHT22;5546;48.714;8.738;2024-03-07T04:37:05;7.40;99.90
10986;DHT22;5546;48.714;8.738;2024-03-07T04:39:30;7.20;99.90
10986;DHT22;5546;48.714;8.738;2024-03-07T04:42:05;7.30;99.90
10986;DHT22;5546;48.714;8.738;2024-03-07T04:44:35;7.40;99.90
10986;DHT22;5546;48.714;8.738;2024-03-07T04:47:02;7.10;99.90
10986;DHT22;5546;48.714;8.738;2024-03-07T04:49:29;7.20;99.90
10986;DHT22;5546;48.714;8.738;2024-03-07T04:51:57;7.20;99.90
10986;DHT22;5546;48.714;8.738;2024-03-07T04:54:26;7.20;99.90
10986;DHT22;5546;48.714;8.738;2024-03-07T04:56:52;7.20;99.90
10986;DHT22;5546;48.714;8.738;2024-03-07T04:59:19;7.10;99.90
10986;DHT22;5546;48.714;8.738;2024-03-07T05:01:46;7.30;99.90
10986;DHT22;5546;48.714;8.738;2024-03-07T05:04:13;7.20;99.90
10986;DHT22;5546;48.714;8.738;2024-03-07T05:06:39;7.20;99.90
10986;DHT22;5546;48.714;8.738;2024-03-07T05:09:06;6.90;99.90
10986;DHT22;5546;48.714;8.738;2024-03-07T05:11:32;6.80;99.90
10986;DHT22;5546;48.714;8.738;2024-03-07T05:13:58;7.10;99.90
10986;DHT22;5546;48.714;8.738;2024-03-07T05:16:28;7.20;99.90
10986;DHT22;5546;48.714;8.738;2024-03-07T05:18:54;7.10;99.90
10986;DHT22;5546;48.714;8.738;2024-03-07T05:21:23;7.00;99.90
10986;DHT22;5546;48.714;8.738;2024-03-07T05:24:01;6.60;99.90
10986;DHT22;5546;48.714;8.738;2024-03-07T05:26:28;6.70;99.90
10986;DHT22;5546;48.714;8.738;2024-03-07T05:28:55;6.90;99.90
10986;DHT22;5546;48.714;8.738;2024-03-07T05:31:21;7.10;99.90
10986;DHT22;5546;48.714;8.738;2024-03-07T05:33:47;7.10;99.90
10986;DHT22;5546;48.714;8.738;2024-03-07T05:38:42;7.20;99.90
10986;DHT22;5546;48.714;8.738;2024-03-07T05:41:13;6.90;99.90
10986;DHT22;5546;48.714;8.738;2024-03-07T05:43:39;6.60;99.90
10986;DHT22;5546;48.714;8.738;2024-03-07T05:46:05;6.70;99.90
10986;DHT22;5546;48.714;8.738;2024-03-07T05:48:33;6.70;99.90
10986;DHT22;5546;48.714;8.738;2024-03-07T05:50:59;6.40;99.90
10986;DHT22;5546;48.714;8.738;2024-03-07T05:53:25;6.30;99.90
10986;DHT22;5546;48.714;8.738;2024-03-07T05:58:20;6.70;99.90
10986;DHT22;5546;48.714;8.738;2024-03-07T06:00:46;6.40;99.90
10986;DHT22;5546;48.714;8.738;2024-03-07T06:03:18;6.50;99.90
10986;DHT22;5546;48.714;8.738;2024-03-07T06:05:49;6.00;99.90
10986;DHT22;5546;48.714;8.738;2024-03-07T06:08:15;6.30;99.90
10986;DHT22;5546;48.714;8.738;2024-03-07T06:10:44;6.40;99.90
10986;DHT22;5546;48.714;8.738;2024-03-07T06:13:11;6.50;99.90
10986;DHT22;5546;48.714;8.738;2024-03-07T06:15:38;6.60;99.90
10986;DHT22;5546;48.714;8.738;2024-03-07T06:18:04;6.70;99.90
10986;DHT22;5546;48.714;8.738;2024-03-07T06:20:30;6.70;99.90
10986;DHT22;5546;48.714;8.738;2024-03-07T06:25:23;6.70;99.90
10986;DHT22;5546;48.714;8.738;2024-03-07T06:28:00;6.50;99.90
10986;DHT22;5546;48.714;8.738;2024-03-07T06:30:38;6.50;99.90
10986;DHT22;5546;48.714;8.738;2024-03-07T06:33:08;6.70;99.90
10986;DHT22;5546;48.714;8.738;2024-03-07T06:35:35;6.90;99.90
10986;DHT22;5546;48.714;8.738;2024-03-07T06:38:03;7.00;99.90
10986;DHT22;5546;48.714;8.738;2024-03-07T06:40:29;7.10;99.90
10986;DHT22;5546;48.714;8.738;2024-03-07T06:42:55;7.50;99.90
10986;DHT22;5546;48.714;8.738;2024-03-07T06:45:21;7.50;99.90
10986;DHT22;5546;48.714;8.738;2024-03-07T06:47:49;7.80;99.90
10986;DHT22;5546;48.714;8.738;2024-03-07T06:50:15;8.30;99.90
10986;DHT22;5546;48.714;8.738;2024-03-07T06:52:45;8.30;99.90
10986;DHT22;5546;48.714;8.738;2024-03-07T06:55:14;8.90;98.80
10986;DHT22;5546;48.714;8.738;2024-03-07T06:57:40;9.30;97.70
10986;DHT22;5546;48.714;8.738;2024-03-07T07:00:06;9.30;97.70
10986;DHT22;5546;48.714;8.738;2024-03-07T07:02:40;9.70;97.00
10986;DHT22;5546;48.714;8.738;2024-03-07T07:05:06;10.00;96.10
10986;DHT22;5546;48.714;8.738;2024-03-07T07:07:40;9.90;96.50
10986;DHT22;5546;48.714;8.738;2024-03-07T07:10:07;10.30;96.20
10986;DHT22;5546;48.714;8.738;2024-03-07T07:12:36;10.90;95.10
10986;DHT22;5546;48.714;8.738;2024-03-07T07:15:02;10.80;94.30
10986;DHT22;5546;48.714;8.738;2024-03-07T07:17:28;10.80;94.40
10986;DHT22;5546;48.714;8.738;2024-03-07T07:19:55;11.10;94.10
10986;DHT22;5546;48.714;8.738;2024-03-07T07:22:21;11.20;93.10
10986;DHT22;5546;48.714;8.738;2024-03-07T07:24:47;11.40;92.90
10986;DHT22;5546;48.714;8.738;2024-03-07T07:27:12;11.70;92.50
10986;DHT22;5546;48.714;8.738;2024-03-07T07:32:04;11.90;91.80
10986;DHT22;5546;48.714;8.738;2024-03-07T07:34:30;12.00;91.40
10986;DHT22;5546;48.714;8.738;2024-03-07T07:36:55;12.30;90.90
10986;DHT22;5546;48.714;8.738;2024-03-07T07:39:22;12.70;90.60
10986;DHT22;5546;48.714;8.738;2024-03-07T07:41:47;13.30;89.30
10986;DHT22;5546;48.714;8.738;2024-03-07T07:44:13;13.60;86.80
10986;DHT22;5546;48.714;8.738;2024-03-07T07:46:39;13.60;87.20
10986;DHT22;5546;48.714;8.738;2024-03-07T07:49:06;14.10;84.90
10986;DHT22;5546;48.714;8.738;2024-03-07T07:51:31;13.80;83.80
10986;DHT22;5546;48.714;8.738;2024-03-07T07:53:57;13.80;84.50
10986;DHT22;5546;48.714;8.738;2024-03-07T07:56:23;13.80;86.00
10986;DHT22;5546;48.714;8.738;2024-03-07T07:58:49;14.60;80.40
10986;DHT22;5546;48.714;8.738;2024-03-07T08:01:15;14.70;80.30
10986;DHT22;5546;48.714;8.738;2024-03-07T08:03:44;14.70;80.90
10986;DHT22;5546;48.714;8.738;2024-03-07T08:06:10;15.30;75.90
10986;DHT22;5546;48.714;8.738;2024-03-07T08:08:35;16.20;76.00
10986;DHT22;5546;48.714;8.738;2024-03-07T08:11:01;17.30;73.40
10986;DHT22;5546;48.714;8.738;2024-03-07T08:13:27;18.20;69.60
10986;DHT22;5546;48.714;8.738;2024-03-07T08:15:52;18.60;67.90
10986;DHT22;5546;48.714;8.738;2024-03-07T08:18:19;19.50;65.40
10986;DHT22;5546;48.714;8.738;2024-03-07T08:20:45;20.40;62.00
10986;DHT22;5546;48.714;8.738;2024-03-07T08:23:11;19.60;61.40
10986;DHT22;5546;48.714;8.738;2024-03-07T08:25:38;19.90;61.60
10986;DHT22;5546;48.714;8.738;2024-03-07T08:28:06;20.50;59.40
10986;DHT22;5546;48.714;8.738;2024-03-07T08:30:31;19.70;59.80
10986;DHT22;5546;48.714;8.738;2024-03-07T08:32:57;18.30;59.70
10986;DHT22;5546;48.714;8.738;2024-03-07T08:35:24;19.00;60.20
10986;DHT22;5546;48.714;8.738;2024-03-07T08:37:51;20.00;59.50
10986;DHT22;5546;48.714;8.738;2024-03-07T08:40:22;20.20;57.50
10986;DHT22;5546;48.714;8.738;2024-03-07T08:42:49;20.20;57.40
10986;DHT22;5546;48.714;8.738;2024-03-07T08:45:21;20.80;55.50
10986;DHT22;5546;48.714;8.738;2024-03-07T08:47:51;20.30;56.00
10986;DHT22;5546;48.714;8.738;2024-03-07T08:50:17;20.20;56.10
10986;DHT22;5546;48.714;8.738;2024-03-07T08:52:44;20.70;57.00
10986;DHT22;5546;48.714;8.738;2024-03-07T08:55:12;19.80;55.80
10986;DHT22;5546;48.714;8.738;2024-03-07T08:57:40;19.00;57.00
10986;DHT22;5546;48.714;8.738;2024-03-07T09:00:07;19.70;56.70
10986;DHT22;5546;48.714;8.738;2024-03-07T09:02:40;20.70;55.10
10986;DHT22;5546;48.714;8.738;2024-03-07T09:05:07;20.70;55.20
10986;DHT22;5546;48.714;8.738;2024-03-07T09:07:35;19.20;57.40
10986;DHT22;5546;48.714;8.738;2024-03-07T09:10:01;19.10;57.80
10986;DHT22;5546;48.714;8.738;2024-03-07T09:12:27;16.80;62.20
10986;DHT22;5546;48.714;8.738;2024-03-07T09:17:19;14.30;69.70
10986;DHT22;5546;48.714;8.738;2024-03-07T09:19:45;13.90;72.00
10986;DHT22;5546;48.714;8.738;2024-03-07T09:22:10;12.80;70.80
10986;DHT22;5546;48.714;8.738;2024-03-07T09:24:36;11.50;75.90
10986;DHT22;5546;48.714;8.738;2024-03-07T09:27:03;11.20;77.10
10986;DHT22;5546;48.714;8.738;2024-03-07T09:29:30;11.00;78.60
10986;DHT22;5546;48.714;8.738;2024-03-07T09:31:55;11.00;79.10
10986;DHT22;5546;48.714;8.738;2024-03-07T09:34:22;10.40;81.60
10986;DHT22;5546;48.714;8.738;2024-03-07T09:36:48;10.30;82.80
10986;DHT22;5546;48.714;8.738;2024-03-07T09:39:17;10.30;84.00
10986;DHT22;5546;48.714;8.738;2024-03-07T09:41:44;9.90;85.20
10986;DHT22;5546;48.714;8.738;2024-03-07T09:44:12;9.70;86.50
10986;DHT22;5546;48.714;8.738;2024-03-07T09:46:40;9.30;89.10
10986;DHT22;5546;48.714;8.738;2024-03-07T09:51:33;9.70;88.30
10986;DHT22;5546;48.714;8.738;2024-03-07T09:54:00;10.10;86.40
10986;DHT22;5546;48.714;8.738;2024-03-07T09:56:27;10.20;85.90
10986;DHT22;5546;48.714;8.738;2024-03-07T09:58:56;10.60;86.00
10986;DHT22;5546;48.714;8.738;2024-03-07T10:01:25;10.30;85.80
10986;DHT22;5546;48.714;8.738;2024-03-07T10:03:58;10.70;86.00
10986;DHT22;5546;48.714;8.738;2024-03-07T10:06:23;10.30;86.80
10986;DHT22;5546;48.714;8.738;2024-03-07T10:08:50;9.80;88.00
10986;DHT22;5546;48.714;8.738;2024-03-07T10:11:16;9.80;88.50
10986;DHT22;5546;48.714;8.738;2024-03-07T10:16:08;10.30;87.60
10986;DHT22;5546;48.714;8.738;2024-03-07T10:18:42;10.40;86.00
10986;DHT22;5546;48.714;8.738;2024-03-07T10:23:36;10.40;86.60
10986;DHT22;5546;48.714;8.738;2024-03-07T10:26:04;10.00;87.40
10986;DHT22;5546;48.714;8.738;2024-03-07T10:28:30;10.10;88.60
10986;DHT22;5546;48.714;8.738;2024-03-07T10:30:56;10.30;88.00
10986;DHT22;5546;48.714;8.738;2024-03-07T10:33:27;9.80;88.40
10986;DHT22;5546;48.714;8.738;2024-03-07T10:35:52;9.70;88.70
10986;DHT22;5546;48.714;8.738;2024-03-07T10:38:18;9.80;89.70
10986;DHT22;5546;48.714;8.738;2024-03-07T10:40:47;10.10;88.80
10986;DHT22;5546;48.714;8.738;2024-03-07T10:43:13;10.60;88.40
10986;DHT22;5546;48.714;8.738;2024-03-07T10:45:45;10.70;87.60
10986;DHT22;5546;48.714;8.738;2024-03-07T10:48:16;10.70;87.20
10986;DHT22;5546;48.714;8.738;2024-03-07T10:54:05;10.40;89.00
10986;DHT22;5546;48.714;8.738;2024-03-07T10:59:33;10.40;90.00
10986;DHT22;5546;48.714;8.738;2024-03-07T11:04:36;10.80;89.30
10986;DHT22;5546;48.714;8.738;2024-03-07T11:07:02;10.80;89.30
10986;DHT22;5546;48.714;8.738;2024-03-07T11:09:28;10.90;89.80
10986;DHT22;5546;48.714;8.738;2024-03-07T11:11:59;10.80;89.60
10986;DHT22;5546;48.714;8.738;2024-03-07T11:14:26;10.40;90.00
10986;DHT22;5546;48.714;8.738;2024-03-07T11:19:25;10.90;89.00
10986;DHT22;5546;48.714;8.738;2024-03-07T11:21:53;10.80;89.30
10986;DHT22;5546;48.714;8.738;2024-03-07T11:24:30;10.60;89.50
10986;DHT22;5546;48.714;8.738;2024-03-07T11:26:58;10.20;90.20
10986;DHT22;5546;48.714;8.738;2024-03-07T11:29:39;10.30;90.30
10986;DHT22;5546;48.714;8.738;2024-03-07T11:32:13;10.60;90.20
10986;DHT22;5546;48.714;8.738;2024-03-07T11:34:40;10.90;89.40
10986;DHT22;5546;48.714;8.738;2024-03-07T11:37:07;10.60;88.90
10986;DHT22;5546;48.714;8.738;2024-03-07T11:39:46;10.60;89.80
10986;DHT22;5546;48.714;8.738;2024-03-07T11:42:29;10.60;90.20
10986;DHT22;5546;48.714;8.738;2024-03-07T11:44:56;10.80;90.00
10986;DHT22;5546;48.714;8.738;2024-03-07T11:47:23;11.00;89.50
10986;DHT22;5546;48.714;8.738;2024-03-07T11:49:50;10.90;89.40
10986;DHT22;5546;48.714;8.738;2024-03-07T11:52:18;10.50;89.20
10986;DHT22;5546;48.714;8.738;2024-03-07T11:57:16;10.20;91.20
10986;DHT22;5546;48.714;8.738;2024-03-07T11:59:45;10.50;90.70
10986;DHT22;5546;48.714;8.738;2024-03-07T12:02:13;10.80;90.00
10986;DHT22;5546;48.714;8.738;2024-03-07T12:04:40;10.80;86.60
10986;DHT22;5546;48.714;8.738;2024-03-07T12:07:06;11.00;87.30
10986;DHT22;5546;48.714;8.738;2024-03-07T12:09:32;10.80;88.00
10986;DHT22;5546;48.714;8.738;2024-03-07T12:12:01;10.60;87.80
10986;DHT22;5546;48.714;8.738;2024-03-07T12:14:27;10.40;88.50
10986;DHT22;5546;48.714;8.738;2024-03-07T12:16:53;10.70;88.80
10986;DHT22;5546;48.714;8.738;2024-03-07T12:19:19;11.00;88.10
10986;DHT22;5546;48.714;8.738;2024-03-07T12:21:46;11.30;87.10
10986;DHT22;5546;48.714;8.738;2024-03-07T12:24:14;10.50;88.40
10986;DHT22;5546;48.714;8.738;2024-03-07T12:26:41;10.50;89.10
10986;DHT22;5546;48.714;8.738;2024-03-07T12:29:11;10.90;87.20
10986;DHT22;5546;48.714;8.738;2024-03-07T12:31:43;11.20;85.70
10986;DHT22;5546;48.714;8.738;2024-03-07T12:34:09;11.10;85.50
10986;DHT22;5546;48.714;8.738;2024-03-07T12:36:35;11.40;85.00
10986;DHT22;5546;48.714;8.738;2024-03-07T12:41:50;11.50;83.10
10986;DHT22;5546;48.714;8.738;2024-03-07T12:44:19;11.60;83.50
10986;DHT22;5546;48.714;8.738;2024-03-07T12:46:54;12.20;82.40
10986;DHT22;5546;48.714;8.738;2024-03-07T12:49:24;12.70;79.00
10986;DHT22;5546;48.714;8.738;2024-03-07T12:51:55;12.50;78.50
10986;DHT22;5546;48.714;8.738;2024-03-07T12:54:22;11.90;80.50
10986;DHT22;5546;48.714;8.738;2024-03-07T12:56:48;12.00;80.80
10986;DHT22;5546;48.714;8.738;2024-03-07T12:59:16;12.10;81.20
10986;DHT22;5546;48.714;8.738;2024-03-07T13:01:42;12.30;81.00
10986;DHT22;5546;48.714;8.738;2024-03-07T13:04:11;11.30;82.40
10986;DHT22;5546;48.714;8.738;2024-03-07T13:09:02;11.40;83.50
10986;DHT22;5546;48.714;8.738;2024-03-07T13:11:29;11.60;83.50
10986;DHT22;5546;48.714;8.738;2024-03-07T13:13:57;11.80;83.60
10986;DHT22;5546;48.714;8.738;2024-03-07T13:16:23;11.40;84.10
10986;DHT22;5546;48.714;8.738;2024-03-07T13:18:56;11.10;85.40
10986;DHT22;5546;48.714;8.738;2024-03-07T13:21:21;10.80;86.60
10986;DHT22;5546;48.714;8.738;2024-03-07T13:23:47;11.10;87.20
10986;DHT22;5546;48.714;8.738;2024-03-07T13:26:12;11.20;86.10
10986;DHT22;5546;48.714;8.738;2024-03-07T13:28:44;11.10;86.80
10986;DHT22;5546;48.714;8.738;2024-03-07T13:31:11;11.40;85.60
10986;DHT22;5546;48.714;8.738;2024-03-07T13:33:43;10.50;88.70
10986;DHT22;5546;48.714;8.738;2024-03-07T13:36:10;10.60;89.80
10986;DHT22;5546;48.714;8.738;2024-03-07T13:38:35;11.10;88.60
10986;DHT22;5546;48.714;8.738;2024-03-07T13:41:02;11.50;87.80
10986;DHT22;5546;48.714;8.738;2024-03-07T13:43:30;11.80;86.90
10986;DHT22;5546;48.714;8.738;2024-03-07T13:45:59;11.90;87.50
10986;DHT22;5546;48.714;8.738;2024-03-07T13:48:25;12.10;84.40
10986;DHT22;5546;48.714;8.738;2024-03-07T13:50:51;12.30;83.80
10986;DHT22;5546;48.714;8.738;2024-03-07T13:53:20;12.50;83.80
10986;DHT22;5546;48.714;8.738;2024-03-07T14:01:52;12.10;84.30
10986;DHT22;5546;48.714;8.738;2024-03-07T14:04:52;12.00;85.20
10986;DHT22;5546;48.714;8.738;2024-03-07T14:12:58;12.20;86.00
10986;DHT22;5546;48.714;8.738;2024-03-07T14:18:59;12.50;85.50
10986;DHT22;5546;48.714;8.738;2024-03-07T14:27:23;12.70;84.80
10986;DHT22;5546;48.714;8.738;2024-03-07T14:32:50;11.70;87.50
10986;DHT22;5546;48.714;8.738;2024-03-07T14:35:26;11.70;88.20
10986;DHT22;5546;48.714;8.738;2024-03-07T14:40:40;11.60;89.10
10986;DHT22;5546;48.714;8.738;2024-03-07T14:43:06;11.30;88.60
10986;DHT22;5546;48.714;8.738;2024-03-07T14:45:36;11.40;89.40
10986;DHT22;5546;48.714;8.738;2024-03-07T14:48:02;11.80;89.10
10986;DHT22;5546;48.714;8.738;2024-03-07T14:50:30;12.10;88.40
10986;DHT22;5546;48.714;8.738;2024-03-07T14:52:58;12.40;87.50
10986;DHT22;5546;48.714;8.738;2024-03-07T14:55:24;12.20;87.30
10986;DHT22;5546;48.714;8.738;2024-03-07T14:57:50;12.20;87.10
10986;DHT22;5546;48.714;8.738;2024-03-07T15:00:15;12.20;86.90
10986;DHT22;5546;48.714;8.738;2024-03-07T15:02:48;12.10;88.90
10986;DHT22;5546;48.714;8.738;2024-03-07T15:05:17;12.30;88.60
10986;DHT22;5546;48.714;8.738;2024-03-07T15:07:46;12.10;88.30
10986;DHT22;5546;48.714;8.738;2024-03-07T15:10:21;12.10;88.70
10986;DHT22;5546;48.714;8.738;2024-03-07T15:15:16;12.50;87.50
10986;DHT22;5546;48.714;8.738;2024-03-07T15:17:44;12.40;86.00
10986;DHT22;5546;48.714;8.738;2024-03-07T15:20:14;12.20;86.00
10986;DHT22;5546;48.714;8.738;2024-03-07T15:22:56;11.30;89.00
10986;DHT22;5546;48.714;8.738;2024-03-07T15:25:23;11.20;90.10
10986;DHT22;5546;48.714;8.738;2024-03-07T15:27:49;11.20;89.50
10986;DHT22;5546;48.714;8.738;2024-03-07T15:30:16;11.30;89.30
10986;DHT22;5546;48.714;8.738;2024-03-07T15:32:43;11.10;89.90
10986;DHT22;5546;48.714;8.738;2024-03-07T15:35:10;11.20;90.00
10986;DHT22;5546;48.714;8.738;2024-03-07T15:37:56;11.40;89.90
10986;DHT22;5546;48.714;8.738;2024-03-07T15:40:21;11.60;90.00
10986;DHT22;5546;48.714;8.738;2024-03-07T15:42:49;11.50;89.60
10986;DHT22;5546;48.714;8.738;2024-03-07T15:45:20;11.60;89.50
10986;DHT22;5546;48.714;8.738;2024-03-07T15:47:49;11.70;88.10
10986;DHT22;5546;48.714;8.738;2024-03-07T15:50:15;11.40;89.40
10986;DHT22;5546;48.714;8.738;2024-03-07T15:52:44;11.10;89.20
10986;DHT22;5546;48.714;8.738;2024-03-07T15:55:10;10.80;90.40
10986;DHT22;5546;48.714;8.738;2024-03-07T15:57:47;11.20;90.30
10986;DHT22;5546;48.714;8.738;2024-03-07T16:00:16;11.20;89.90
10986;DHT22;5546;48.714;8.738;2024-03-07T16:02:55;11.50;89.50
10986;DHT22;5546;48.714;8.738;2024-03-07T16:05:25;11.60;88.70
10986;DHT22;5546;48.714;8.738;2024-03-07T16:07:52;12.10;90.00
10986;DHT22;5546;48.714;8.738;2024-03-07T16:10:21;10.90;90.30
10986;DHT22;5546;48.714;8.738;2024-03-07T16:12:53;11.10;90.30
10986;DHT22;5546;48.714;8.738;2024-03-07T16:15:19;10.90;90.20
10986;DHT22;5546;48.714;8.738;2024-03-07T16:17:49;11.40;89.90
10986;DHT22;5546;48.714;8.738;2024-03-07T16:20:15;11.50;89.50
10986;DHT22;5546;48.714;8.738;2024-03-07T16:22:43;11.10;90.00
10986;DHT22;5546;48.714;8.738;2024-03-07T16:25:10;11.00;90.40
10986;DHT22;5546;48.714;8.738;2024-03-07T16:27:37;11.00;90.40
10986;DHT22;5546;48.714;8.738;2024-03-07T16:30:06;11.00;90.50
10986;DHT22;5546;48.714;8.738;2024-03-07T16:32:35;11.20;90.50
10986;DHT22;5546;48.714;8.738;2024-03-07T16:35:05;11.40;90.40
10986;DHT22;5546;48.714;8.738;2024-03-07T16:37:40;11.60;90.00
10986;DHT22;5546;48.714;8.738;2024-03-07T16:40:13;11.70;89.20
10986;DHT22;5546;48.714;8.738;2024-03-07T16:42:43;11.40;90.20
10986;DHT22;5546;48.714;8.738;2024-03-07T16:45:12;11.20;90.50
10986;DHT22;5546;48.714;8.738;2024-03-07T16:47:42;11.20;91.20
10986;DHT22;5546;48.714;8.738;2024-03-07T16:50:08;11.40;90.70
10986;DHT22;5546;48.714;8.738;2024-03-07T16:52:37;11.40;90.60
10986;DHT22;5546;48.714;8.738;2024-03-07T16:55:04;11.30;90.70
10986;DHT22;5546;48.714;8.738;2024-03-07T16:57:38;11.50;90.50
10986;DHT22;5546;48.714;8.738;2024-03-07T17:00:08;11.50;90.90
10986;DHT22;5546;48.714;8.738;2024-03-07T17:02:50;11.60;90.80
10986;DHT22;5546;48.714;8.738;2024-03-07T17:05:17;11.40;91.00
10986;DHT22;5546;48.714;8.738;2024-03-07T17:07:44;11.50;90.90
10986;DHT22;5546;48.714;8.738;2024-03-07T17:10:10;11.40;91.00
10986;DHT22;5546;48.714;8.738;2024-03-07T17:12:49;11.50;90.90